Aplin, Arkansas
Current Conditions -  °F | °C
As of 3:53 AM on Wednesday 22 Oct 2014 (Local Time) from KRUE Reporting Station
Haze Haze  
Wind Chill: 50°   Ceiling: Unl
Heat Index: 50°   Visibility: 6mi
Dew Point: 48°   Wind: 3mph
Humidity: 93%   Direction: 70°ENE
Pressure: 30.14"   Gusts: NA
Location:  34.9067°N, 93.0072°W
Report Text: KRUE 220853Z AUTO 07003KT 6SM BR CLR 10/09 A3014 RMK AO2 SLP202 T01000089 53011
Loading
Personal Weather Stations






























Interactive Weather Map
Tropical Storm Tracking
New forecast layout! Learn more

10-Day Weather Forecast

Advertisements
Track Severe Weather on mobile